createdAt,value
2024-05-09T00:00:48.741Z,2.80
2024-05-09T00:03:21.260Z,1.80
2024-05-09T00:05:51.104Z,1.80
2024-05-09T00:08:21.214Z,2.50
2024-05-09T00:10:51.179Z,2.90
2024-05-09T00:13:20.981Z,3.43
2024-05-09T00:15:50.821Z,3.67
2024-05-09T00:18:23.440Z,3.23
2024-05-09T00:20:53.395Z,3.00
2024-05-09T00:23:23.238Z,2.57
2024-05-09T00:25:53.086Z,4.37
2024-05-09T00:28:23.274Z,2.77
2024-05-09T00:30:52.997Z,2.10
2024-05-09T00:33:25.542Z,1.90
2024-05-09T00:35:55.387Z,2.63
2024-05-09T00:38:25.201Z,2.47
2024-05-09T00:40:55.049Z,2.20
2024-05-09T00:43:24.826Z,2.77
2024-05-09T00:45:56.941Z,3.80
2024-05-09T00:48:30.402Z,2.37
2024-05-09T00:51:01.155Z,3.20
2024-05-09T00:53:31.211Z,3.30
2024-05-09T00:56:01.859Z,1.60
2024-05-09T00:58:32.899Z,2.80
2024-05-09T01:01:04.371Z,3.20
2024-05-09T01:03:37.034Z,3.07
2024-05-09T01:06:07.332Z,2.67
2024-05-09T01:08:37.316Z,2.77
2024-05-09T01:11:07.736Z,2.00
2024-05-09T01:13:37.533Z,2.10
2024-05-09T01:16:08.313Z,3.63
2024-05-09T01:18:40.920Z,2.33
2024-05-09T01:21:10.751Z,2.53
2024-05-09T01:23:43.226Z,2.70
2024-05-09T01:26:13.105Z,3.07
2024-05-09T01:28:42.943Z,4.17
2024-05-09T01:31:15.951Z,2.67
2024-05-09T01:33:46.162Z,2.27
2024-05-09T01:36:16.073Z,2.70
2024-05-09T01:38:48.452Z,2.43
2024-05-09T01:41:18.239Z,2.40
2024-05-09T01:43:48.064Z,2.67
2024-05-09T01:46:19.429Z,2.23
2024-05-09T01:48:49.824Z,1.80
2024-05-09T01:51:19.759Z,3.47
2024-05-09T01:53:52.174Z,2.33
2024-05-09T01:56:21.945Z,2.47
2024-05-09T01:59:45.428Z,1.57
2024-05-09T02:02:15.553Z,3.47
2024-05-09T02:04:48.693Z,2.80
2024-05-09T02:07:18.477Z,3.13
2024-05-09T02:09:50.854Z,2.03
2024-05-09T02:12:20.754Z,1.70
2024-05-09T02:14:50.571Z,3.40
2024-05-09T02:17:20.392Z,3.23
2024-05-09T02:19:50.276Z,2.20
2024-05-09T02:22:19.989Z,2.70
2024-05-09T02:24:52.378Z,2.47
2024-05-09T02:27:22.118Z,4.33
2024-05-09T02:29:51.862Z,3.63
2024-05-09T02:32:21.633Z,5.20
2024-05-09T02:34:51.507Z,3.17
2024-05-09T02:37:18.655Z,2.83
2024-05-09T02:39:48.370Z,3.10
2024-05-09T02:42:18.109Z,2.03
2024-05-09T02:44:47.832Z,2.30
2024-05-09T02:47:15.108Z,2.83
2024-05-09T02:49:44.982Z,2.57
2024-05-09T02:52:12.174Z,1.83
2024-05-09T02:54:41.898Z,2.83
2024-05-09T02:57:09.019Z,2.20
2024-05-09T02:59:41.335Z,2.43
2024-05-09T03:02:08.526Z,2.03
2024-05-09T03:04:38.564Z,2.47
2024-05-09T03:07:05.808Z,2.80
2024-05-09T03:09:35.520Z,2.70
2024-05-09T03:12:02.806Z,2.93
2024-05-09T03:14:32.607Z,2.03
2024-05-09T03:17:02.414Z,2.60
2024-05-09T03:19:32.259Z,3.10
2024-05-09T03:21:59.498Z,2.30
2024-05-09T03:24:29.234Z,2.57
2024-05-09T03:26:56.370Z,2.60
2024-05-09T03:29:26.274Z,1.77
2024-05-09T03:31:53.560Z,2.37
2024-05-09T03:34:26.053Z,2.90
2024-05-09T03:36:55.827Z,2.53
2024-05-09T03:39:25.553Z,2.27
2024-05-09T03:41:55.288Z,1.93
2024-05-09T03:44:25.167Z,2.40
2024-05-09T03:46:55.025Z,1.87
2024-05-09T03:49:24.965Z,2.03
2024-05-09T03:51:54.848Z,2.40
2024-05-09T03:54:22.409Z,2.17
2024-05-09T03:56:52.134Z,2.10
2024-05-09T03:59:19.385Z,2.33
2024-05-09T04:01:49.226Z,2.83
2024-05-09T04:04:16.661Z,3.07
2024-05-09T04:06:49.066Z,2.20
2024-05-09T04:09:16.186Z,3.37
2024-05-09T04:11:46.039Z,1.90
2024-05-09T04:14:13.313Z,2.30
2024-05-09T04:16:43.063Z,2.03
2024-05-09T04:19:10.294Z,2.00
2024-05-09T04:21:40.125Z,2.43
2024-05-09T04:24:09.972Z,1.87
2024-05-09T04:26:39.753Z,1.77
2024-05-09T04:29:06.949Z,2.23
2024-05-09T04:31:39.044Z,1.60
2024-05-09T04:34:06.440Z,2.00
2024-05-09T04:36:36.271Z,2.37
2024-05-09T04:39:03.383Z,2.40
2024-05-09T04:41:35.828Z,1.77
2024-05-09T04:44:03.268Z,1.50
2024-05-09T04:46:33.038Z,1.47
2024-05-09T04:49:00.200Z,3.00
2024-05-09T04:51:29.928Z,1.80
2024-05-09T04:53:57.087Z,1.53
2024-05-09T04:56:26.862Z,2.10
2024-05-09T04:58:56.653Z,2.10
2024-05-09T05:01:26.464Z,1.93
2024-05-09T05:03:55.844Z,1.93
2024-05-09T05:06:25.840Z,1.43
2024-05-09T05:08:52.970Z,2.10
2024-05-09T05:11:22.795Z,2.30
2024-05-09T05:13:50.033Z,1.67
2024-05-09T05:16:22.501Z,2.23
2024-05-09T05:18:49.766Z,2.43
2024-05-09T05:21:19.656Z,2.07
2024-05-09T05:23:46.845Z,2.03
2024-05-09T05:26:20.312Z,2.33
2024-05-09T05:28:47.720Z,2.10
2024-05-09T05:31:18.064Z,1.80
2024-05-09T05:33:49.171Z,2.13
2024-05-09T05:36:18.995Z,1.87
2024-05-09T05:38:46.231Z,2.77
2024-05-09T05:41:16.116Z,2.10
2024-05-09T05:43:43.313Z,1.30
2024-05-09T05:46:13.031Z,2.07
2024-05-09T05:48:40.314Z,2.10
2024-05-09T05:51:12.897Z,1.80
2024-05-09T05:53:40.195Z,2.80
2024-05-09T05:56:10.351Z,1.43
2024-05-09T05:58:38.595Z,1.90
2024-05-09T06:01:08.345Z,2.07
2024-05-09T06:03:35.577Z,1.70
2024-05-09T06:06:06.124Z,2.10
2024-05-09T06:08:36.019Z,2.53
2024-05-09T06:11:06.097Z,2.50
2024-05-09T06:13:33.246Z,2.20
2024-05-09T06:16:04.947Z,1.50
2024-05-09T06:18:32.292Z,1.77
2024-05-09T06:21:02.195Z,1.90
2024-05-09T06:23:29.400Z,1.57
2024-05-09T06:26:01.801Z,1.80
2024-05-09T06:28:28.939Z,2.13
2024-05-09T06:30:58.631Z,1.70
2024-05-09T06:33:26.082Z,1.63
2024-05-09T06:35:59.388Z,2.57
2024-05-09T06:38:26.679Z,2.20
2024-05-09T06:40:57.274Z,2.17
2024-05-09T06:43:27.044Z,2.00
2024-05-09T06:45:56.731Z,1.40
2024-05-09T06:48:24.154Z,2.83
2024-05-09T06:50:54.212Z,1.87
2024-05-09T06:53:22.595Z,2.30
2024-05-09T06:55:52.783Z,2.23
2024-05-09T06:58:19.993Z,1.93
2024-05-09T07:00:52.521Z,2.90
2024-05-09T07:03:20.149Z,2.07
2024-05-09T07:05:50.459Z,1.97
2024-05-09T07:08:18.100Z,2.10
2024-05-09T07:10:47.992Z,1.87
2024-05-09T07:13:15.954Z,2.67
2024-05-09T07:15:46.002Z,2.87
2024-05-09T07:18:18.224Z,2.77
2024-05-09T07:20:50.160Z,2.20
2024-05-09T07:23:18.465Z,1.87
2024-05-09T07:25:48.567Z,1.80
2024-05-09T07:28:17.210Z,1.83
2024-05-09T07:30:47.465Z,1.60
2024-05-09T07:33:23.027Z,3.83
2024-05-09T07:35:53.928Z,2.70
2024-05-09T07:38:21.246Z,2.47
2024-05-09T07:40:51.194Z,1.80
2024-05-09T07:43:18.359Z,2.00
2024-05-09T07:45:53.576Z,2.50
2024-05-09T07:53:00.781Z,2.10
2024-05-09T07:53:50.642Z,2.70
2024-05-09T07:56:24.287Z,2.93
2024-05-09T07:58:53.725Z,3.03
2024-05-09T08:01:25.844Z,2.10
2024-05-09T08:03:56.151Z,2.10
2024-05-09T08:06:26.447Z,1.73
2024-05-09T08:08:53.719Z,3.43
2024-05-09T08:11:23.919Z,2.60
2024-05-09T08:13:51.173Z,1.93
2024-05-09T08:16:21.180Z,2.57
2024-05-09T08:18:48.538Z,2.10
2024-05-09T08:21:21.413Z,2.90
2024-05-09T08:23:48.523Z,3.80
2024-05-09T08:26:18.249Z,2.67
2024-05-09T08:28:45.394Z,2.33
2024-05-09T08:31:15.457Z,2.60
2024-05-09T08:33:47.147Z,2.27
2024-05-09T08:36:20.135Z,2.63
2024-05-09T08:38:47.302Z,3.13
2024-05-09T08:41:17.958Z,2.40
2024-05-09T08:43:46.076Z,1.83
2024-05-09T08:46:18.557Z,2.80
2024-05-09T08:48:48.325Z,2.50
2024-05-09T08:51:21.691Z,2.37
2024-05-09T08:53:48.872Z,2.70
2024-05-09T08:56:19.880Z,2.30
2024-05-09T08:58:48.841Z,2.50
2024-05-09T09:01:20.859Z,2.20
2024-05-09T09:03:49.618Z,1.50
2024-05-09T09:06:24.414Z,1.50
2024-05-09T09:08:51.591Z,2.17
2024-05-09T09:11:21.406Z,1.03
2024-05-09T09:13:48.668Z,2.13
2024-05-09T09:16:18.595Z,1.20
2024-05-09T09:18:46.447Z,2.00
2024-05-09T09:21:16.367Z,1.60
2024-05-09T09:23:46.083Z,1.37
2024-05-09T09:26:19.182Z,2.17
2024-05-09T09:28:47.042Z,2.03
2024-05-09T09:31:20.757Z,2.67
2024-05-09T09:33:48.187Z,1.73
2024-05-09T09:36:18.568Z,1.90
2024-05-09T09:38:48.480Z,1.70
2024-05-09T09:41:21.200Z,1.77
2024-05-09T09:43:48.866Z,2.00
2024-05-09T09:46:20.336Z,1.57
2024-05-09T09:48:47.997Z,1.80
2024-05-09T09:51:18.508Z,1.47
2024-05-09T09:53:51.138Z,1.87
2024-05-09T09:56:22.431Z,2.07
2024-05-09T09:58:50.022Z,1.67
2024-05-09T10:01:19.910Z,2.20
2024-05-09T10:03:47.487Z,1.87
2024-05-09T10:06:18.111Z,2.03
2024-05-09T10:08:49.698Z,1.83
2024-05-09T10:11:22.945Z,1.60
2024-05-09T10:13:51.810Z,1.17
2024-05-09T10:16:23.946Z,1.50
2024-05-09T10:18:51.510Z,1.27
2024-05-09T10:21:22.145Z,1.00
2024-05-09T10:24:03.084Z,1.20
2024-05-09T10:26:34.493Z,1.53
2024-05-09T10:29:11.204Z,1.40
2024-05-09T10:31:43.734Z,1.13
2024-05-09T10:34:17.825Z,1.40
2024-05-09T10:36:47.865Z,1.10
2024-05-09T10:39:19.349Z,0.90
2024-05-09T10:41:49.294Z,0.87
2024-05-09T10:44:17.285Z,1.00
2024-05-09T10:46:47.917Z,1.17
2024-05-09T10:49:15.320Z,0.97
2024-05-09T10:51:47.273Z,0.97
2024-05-09T10:54:17.261Z,0.93
2024-05-09T10:56:47.024Z,1.30
2024-05-09T10:59:14.131Z,0.90
2024-05-09T11:01:44.137Z,1.43
2024-05-09T11:04:11.548Z,1.20
2024-05-09T11:06:42.095Z,0.90
2024-05-09T11:09:09.605Z,0.93
2024-05-09T11:11:42.086Z,0.90
2024-05-09T11:14:12.622Z,0.70
2024-05-09T11:16:42.354Z,1.00
2024-05-09T11:19:13.203Z,0.90
2024-05-09T11:21:43.332Z,1.33
2024-05-09T11:24:11.315Z,1.17
2024-05-09T11:26:45.487Z,1.17
2024-05-09T11:29:13.806Z,0.90
2024-05-09T11:31:49.031Z,0.77
2024-05-09T11:34:16.675Z,1.00
2024-05-09T11:36:46.662Z,1.30
2024-05-09T11:39:14.748Z,1.03
2024-05-09T11:41:47.192Z,1.00
2024-05-09T11:44:14.353Z,1.10
2024-05-09T11:46:45.399Z,1.20
2024-05-09T11:49:12.847Z,1.10
2024-05-09T11:51:42.750Z,1.33
2024-05-09T11:54:09.930Z,1.10
2024-05-09T11:56:39.838Z,1.17
2024-05-09T11:59:09.840Z,0.93
2024-05-09T12:01:39.728Z,1.00
2024-05-09T12:04:07.261Z,1.10
2024-05-09T12:06:37.183Z,1.07
2024-05-09T12:09:04.457Z,1.10
2024-05-09T12:11:34.342Z,0.83
2024-05-09T12:14:01.483Z,0.93
2024-05-09T12:16:33.980Z,1.30
2024-05-09T12:19:01.294Z,1.50
2024-05-09T12:21:31.156Z,1.40
2024-05-09T12:23:58.357Z,1.23
2024-05-09T12:26:28.507Z,1.50
2024-05-09T12:28:55.751Z,1.33
2024-05-09T12:31:25.646Z,2.07
2024-05-09T12:33:55.601Z,1.37
2024-05-09T12:36:25.435Z,1.40
2024-05-09T12:38:52.667Z,1.53
2024-05-09T12:41:22.421Z,1.57
2024-05-09T12:43:49.771Z,1.43
2024-05-09T12:46:20.498Z,1.40
2024-05-09T12:48:48.001Z,2.00
2024-05-09T12:51:20.456Z,1.50
2024-05-09T12:53:47.595Z,1.13
2024-05-09T12:56:17.353Z,1.33
2024-05-09T12:58:44.755Z,1.03
2024-05-09T13:01:14.662Z,1.30
2024-05-09T13:03:42.471Z,1.17
2024-05-09T13:06:12.726Z,2.00
2024-05-09T13:08:42.540Z,2.00
2024-05-09T13:11:13.032Z,1.50
2024-05-09T13:13:40.194Z,1.40
2024-05-09T13:16:10.271Z,1.57
2024-05-09T13:18:37.568Z,1.30
2024-05-09T13:21:10.830Z,1.67
2024-05-09T13:23:38.033Z,1.53
2024-05-09T13:26:10.629Z,1.60
2024-05-09T13:28:37.832Z,1.70
2024-05-09T13:31:07.798Z,1.20
2024-05-09T13:33:35.042Z,1.87
2024-05-09T13:36:04.845Z,1.00
2024-05-09T13:38:31.986Z,0.93
2024-05-09T13:41:01.722Z,1.70
2024-05-09T13:43:31.510Z,1.73
2024-05-09T13:46:01.490Z,1.93
2024-05-09T13:48:28.830Z,1.40
2024-05-09T13:50:58.749Z,1.73
2024-05-09T13:53:26.845Z,1.30
2024-05-09T13:55:56.615Z,1.30
2024-05-09T13:58:24.186Z,1.53
2024-05-09T14:00:56.907Z,1.50
2024-05-09T14:03:24.679Z,1.37
2024-05-09T14:05:54.639Z,1.30
2024-05-09T14:08:22.967Z,1.40
2024-05-09T14:10:53.772Z,1.80
2024-05-09T14:13:21.154Z,1.60
2024-05-09T14:15:51.365Z,1.77
2024-05-09T14:18:21.712Z,1.37
2024-05-09T14:20:51.545Z,1.37
2024-05-09T14:23:18.716Z,1.20
2024-05-09T14:25:52.066Z,1.20
2024-05-09T14:28:20.006Z,1.17
2024-05-09T14:30:49.843Z,1.47
2024-05-09T14:33:23.510Z,1.80
2024-05-09T14:35:56.421Z,1.27
2024-05-09T14:38:24.261Z,1.10
2024-05-09T14:40:54.419Z,1.27
2024-05-09T14:43:21.720Z,1.20
2024-05-09T14:45:51.594Z,0.93
2024-05-09T14:48:20.085Z,1.57
2024-05-09T14:50:50.270Z,1.50
2024-05-09T14:53:20.064Z,1.80
2024-05-09T14:55:50.087Z,1.33
2024-05-09T14:58:17.571Z,0.97
2024-05-09T15:00:51.263Z,1.20
2024-05-09T15:03:19.953Z,1.33
2024-05-09T15:05:51.356Z,1.40
2024-05-09T15:08:21.664Z,0.93
2024-05-09T15:10:52.114Z,1.37
2024-05-09T15:13:19.967Z,1.20
2024-05-09T15:15:49.928Z,1.10
2024-05-09T15:18:17.455Z,1.23
2024-05-09T15:20:48.290Z,0.97
2024-05-09T15:23:18.259Z,1.50
2024-05-09T15:25:48.100Z,1.20
2024-05-09T15:28:18.615Z,1.37
2024-05-09T15:30:46.981Z,0.83
2024-05-09T15:33:17.302Z,1.27
2024-05-09T15:35:46.602Z,1.10
2024-05-09T15:38:18.381Z,1.30
2024-05-09T15:40:48.666Z,1.37
2024-05-09T15:43:18.663Z,1.00
2024-05-09T15:45:46.038Z,1.37
2024-05-09T15:48:16.691Z,0.90
2024-05-09T15:50:44.191Z,1.43
2024-05-09T15:53:15.166Z,1.33
2024-05-09T15:55:42.772Z,1.77
2024-05-09T15:58:16.014Z,1.23
2024-05-09T16:00:45.051Z,1.13
2024-05-09T16:03:16.653Z,1.10
2024-05-09T16:05:44.834Z,1.50
2024-05-09T16:08:15.490Z,1.20
2024-05-09T16:10:46.054Z,1.30
2024-05-09T16:13:19.819Z,0.93
2024-05-09T16:15:47.478Z,1.77
2024-05-09T16:18:17.754Z,1.93
2024-05-09T16:20:47.462Z,0.87
2024-05-09T16:23:19.268Z,1.20
2024-05-09T16:25:48.053Z,1.27
2024-05-09T16:28:22.829Z,1.17
2024-05-09T16:30:50.539Z,0.90
2024-05-09T16:33:23.707Z,1.03
2024-05-09T16:35:51.062Z,1.27
2024-05-09T16:38:21.270Z,1.17
2024-05-09T16:40:48.546Z,1.30
2024-05-09T16:43:21.256Z,1.10
2024-05-09T16:45:48.564Z,1.30
2024-05-09T16:48:18.498Z,2.50
2024-05-09T16:50:45.616Z,1.70
2024-05-09T16:53:16.263Z,1.87
2024-05-09T16:55:43.492Z,0.93
2024-05-09T16:58:13.343Z,1.10
2024-05-09T17:00:44.199Z,1.30
2024-05-09T17:03:16.811Z,1.07
2024-05-09T17:05:46.045Z,1.30
2024-05-09T17:08:18.796Z,1.10
2024-05-09T17:10:46.540Z,1.30
2024-05-09T17:13:16.587Z,1.20
2024-05-09T17:15:49.360Z,1.20
2024-05-09T17:18:16.845Z,1.30
2024-05-09T17:20:46.634Z,1.07
2024-05-09T17:23:14.433Z,1.30
2024-05-09T17:25:45.102Z,0.83
2024-05-09T17:28:12.618Z,1.30
2024-05-09T17:30:43.187Z,0.97
2024-05-09T17:33:13.691Z,1.07
2024-05-09T17:35:45.801Z,1.33
2024-05-09T17:38:13.193Z,0.90
2024-05-09T17:40:43.080Z,1.03
2024-05-09T17:43:11.002Z,1.37
2024-05-09T17:45:41.881Z,1.43
2024-05-09T17:48:12.678Z,1.30
2024-05-09T17:50:42.761Z,1.13
2024-05-09T17:53:10.855Z,1.53
2024-05-09T17:55:41.698Z,1.17
2024-05-09T17:58:09.867Z,1.43
2024-05-09T18:00:42.080Z,0.90
2024-05-09T18:03:15.329Z,0.80
2024-05-09T18:05:43.988Z,1.20
2024-05-09T18:08:14.758Z,1.30
2024-05-09T18:10:42.365Z,0.87
2024-05-09T18:13:13.144Z,1.23
2024-05-09T18:15:40.977Z,1.43
2024-05-09T18:18:11.409Z,1.10
2024-05-09T18:20:44.898Z,1.37
2024-05-09T18:23:17.905Z,1.10
2024-05-09T18:28:16.439Z,1.20
2024-05-09T18:30:44.302Z,1.20
2024-05-09T18:33:14.591Z,1.23
2024-05-09T18:35:45.365Z,1.00
2024-05-09T18:38:15.616Z,1.00
2024-05-09T18:40:45.014Z,1.00
2024-05-09T18:43:17.293Z,1.47
2024-05-09T18:45:44.877Z,0.80
2024-05-09T18:48:15.371Z,1.03
2024-05-09T18:53:16.149Z,0.90
2024-05-09T18:55:43.390Z,1.67
2024-05-09T18:58:13.551Z,1.20
2024-05-09T19:00:43.847Z,1.87
2024-05-09T19:03:15.803Z,1.60
2024-05-09T19:05:46.496Z,1.50
2024-05-09T19:08:17.139Z,1.80
2024-05-09T19:10:45.870Z,2.27
2024-05-09T19:13:16.619Z,2.67
2024-05-09T19:15:44.574Z,1.60
2024-05-09T19:18:15.805Z,1.70
2024-05-09T19:20:45.920Z,1.90
2024-05-09T19:23:15.685Z,1.80
2024-05-09T19:25:42.791Z,1.80
2024-05-09T19:28:12.761Z,1.40
2024-05-09T19:30:42.242Z,1.90
2024-05-09T19:33:14.477Z,1.50
2024-05-09T19:35:42.210Z,1.92
2024-05-09T19:38:15.411Z,1.60
2024-05-09T19:40:42.737Z,1.80
2024-05-09T19:43:12.668Z,1.42
2024-05-09T19:45:39.984Z,1.50
2024-05-09T19:48:10.847Z,2.00
2024-05-09T19:50:43.064Z,1.80
2024-05-09T19:53:17.432Z,1.90
2024-05-09T19:55:44.591Z,1.75
2024-05-09T19:58:14.515Z,1.90
2024-05-09T20:00:43.654Z,1.70
2024-05-09T20:03:15.492Z,2.00
2024-05-09T20:05:45.373Z,1.90
2024-05-09T20:08:18.725Z,1.90
2024-05-09T20:10:45.875Z,1.70
2024-05-09T20:13:16.343Z,1.60
2024-05-09T20:15:43.564Z,1.90
2024-05-09T20:18:13.531Z,1.83
2024-05-09T20:20:43.044Z,1.98
2024-05-09T20:23:14.971Z,1.60
2024-05-09T20:25:44.793Z,2.20
2024-05-09T20:28:14.592Z,2.30
2024-05-09T20:30:42.027Z,2.30
2024-05-09T20:33:12.402Z,2.00
2024-05-09T20:35:40.053Z,1.90
2024-05-09T20:38:10.281Z,2.30
2024-05-09T20:40:39.267Z,1.90
2024-05-09T20:43:12.454Z,2.65
2024-05-09T20:45:40.294Z,2.55
2024-05-09T20:48:11.752Z,3.33
2024-05-09T20:50:41.611Z,2.73
2024-05-09T20:53:14.603Z,2.20
2024-05-09T20:55:45.782Z,1.20
2024-05-09T20:58:15.722Z,2.20
2024-05-09T21:00:46.782Z,2.30
2024-05-09T21:03:16.173Z,1.00
2024-05-09T21:05:47.612Z,1.30
2024-05-09T21:08:15.373Z,0.90
2024-05-09T21:10:45.341Z,1.20
2024-05-09T21:13:15.390Z,1.30
2024-05-09T21:15:45.273Z,1.13
2024-05-09T21:18:12.593Z,0.90
2024-05-09T21:20:42.347Z,0.80
2024-05-09T21:23:09.470Z,1.30
2024-05-09T21:25:39.207Z,1.13
2024-05-09T21:28:06.584Z,1.53
2024-05-09T21:30:42.486Z,1.40
2024-05-09T21:33:12.672Z,1.03
2024-05-09T21:35:44.727Z,1.07
2024-05-09T21:38:13.910Z,1.00
2024-05-09T21:40:44.467Z,0.80
2024-05-09T21:43:12.166Z,1.10
2024-05-09T21:45:44.704Z,0.90
2024-05-09T21:48:13.096Z,0.80
2024-05-09T21:50:43.123Z,0.70
2024-05-09T21:53:10.796Z,1.30
2024-05-09T21:55:40.746Z,1.10
2024-05-09T21:58:08.284Z,1.67
2024-05-09T22:00:39.518Z,0.90
2024-05-09T22:03:11.320Z,1.20
2024-05-09T22:05:44.287Z,1.20
2024-05-09T22:08:12.002Z,1.40
2024-05-09T22:10:41.867Z,0.83
2024-05-09T22:13:09.368Z,1.30
2024-05-09T22:15:41.031Z,0.90
2024-05-09T22:18:11.668Z,0.97
2024-05-09T22:20:45.667Z,0.90
2024-05-09T22:23:14.542Z,1.10
2024-05-09T22:25:44.475Z,1.30
2024-05-09T22:30:43.946Z,0.90
2024-05-09T22:33:14.990Z,2.17
2024-05-09T22:35:45.331Z,2.40
2024-05-09T22:38:12.641Z,1.90
2024-05-09T22:40:47.840Z,2.50
2024-05-09T22:43:19.366Z,2.05
2024-05-09T22:45:50.297Z,2.60
2024-05-09T22:48:20.683Z,2.25
2024-05-09T22:50:50.547Z,2.20
2024-05-09T22:53:18.049Z,2.40
2024-05-09T22:55:47.807Z,2.28
2024-05-09T22:58:15.052Z,2.65
2024-05-09T23:00:44.920Z,2.20
2024-05-09T23:03:14.104Z,2.38
2024-05-09T23:05:46.478Z,1.77
2024-05-09T23:08:13.666Z,2.03
2024-05-09T23:10:43.530Z,1.90
2024-05-09T23:13:10.715Z,2.00
2024-05-09T23:15:40.616Z,1.90
2024-05-09T23:18:08.368Z,2.15
2024-05-09T23:20:39.968Z,2.30
2024-05-09T23:23:11.702Z,1.90
2024-05-09T23:25:43.566Z,2.40
2024-05-09T23:28:11.094Z,1.92
2024-05-09T23:30:41.856Z,1.90
2024-05-09T23:33:11.314Z,2.00
2024-05-09T23:35:41.278Z,2.10
2024-05-09T23:38:11.031Z,2.45
2024-05-09T23:40:42.049Z,2.40
2024-05-09T23:43:11.042Z,2.20
2024-05-09T23:45:42.033Z,2.28
2024-05-09T23:48:09.931Z,2.00
2024-05-09T23:50:40.680Z,2.10
2024-05-09T23:53:11.398Z,1.85
2024-05-09T23:55:41.727Z,1.80
2024-05-09T23:58:09.455Z,2.60
